Tarrytown, New York
Current Conditions -  °F | °C
As of 7:56 AM on Sunday 23 Nov 2014 (Local Time) from KHPN Reporting Station
Broken Clouds Broken Clouds  
Wind Chill: 38°   Ceiling: 8500
Heat Index: 42°   Visibility: 10mi
Dew Point: 21°   Wind: 6mph
Humidity: 43%   Direction: 260°W
Pressure: 30.18"   Gusts: NA
Location:  41.08°N, 73.86°W
Report Text: KHPN 231256Z 26005KT 10SM BKN085 06/M06 A3018 RMK AO2 SLP226 T00561061
Loading
Personal Weather Stations






























Interactive Weather Map New forecast layout! Learn more

10-Day Weather Forecast

Advertisements
Track Severe Weather on mobile